• Join FlightAware (Why Join?)
  • Login
  • US Flag 
05:37AM EDT


 

Airport Tracker/Info


-or-


 

Live Flight TrackerFlight Track Log ✈ ASQ5007 ✈ 11-May-2012 ✈ KATL - KSHV

Flight Track Log - Related Links

Times and Time Zones

All times are in EDT time to prevent confusion due to time zone crossing. See the ASQ5007 flight status page for this flight to view local times or setup timezone preferences in your user account.

Time Position Orientation Groundspeed Altitude Reporting Facility
EDT Latitude Longitude Course Direction KTS MPH feet Rate Location/Type
12:43PM 33.6519 -84.3708 64° Northeast 423 487 2,100  Level Atlanta Center
12:44PM 33.6814 -84.2983 15° North 284 327 4,500 2,340 Climbing Atlanta Center
12:45PM 33.7439 -84.2786 331° Northwest 237 273 6,800 2,400 Climbing Atlanta Center
12:46PM 33.8086 -84.3214 271° West 282 325 9,400 2,100 Climbing Atlanta Center
12:47PM 33.8103 -84.4164 270° West 287 330 11,000 1,020 Climbing Atlanta Center
12:48PM 33.8100 -84.5364 261° West 334 384 11,500 1,620 Climbing Atlanta Center
12:49PM 33.7928 -84.6636 268° West 357 411 14,300 2,040 Climbing Atlanta Center
12:50PM 33.7900 -84.7636 266° West 350 403 15,600 1,320 Climbing Atlanta Center
12:51PM 33.7831 -84.8961 267° West 354 407 17,000 1,260 Climbing Atlanta Center
12:52PM 33.7778 -85.0136 267° West 365 420 18,200 1,320 Climbing Atlanta Center
12:53PM 33.7728 -85.1333 267° West 365 420 19,700 1,200 Climbing Atlanta Center
12:54PM 33.7675 -85.2508 267° West 360 414 20,700 900 Climbing Atlanta Center
12:55PM 33.7622 -85.3631 267° West 366 421 21,600 900 Climbing Atlanta Center
12:56PM 33.7567 -85.4831 266° West 366 421 22,500 780 Climbing Atlanta Center
12:57PM 33.7489 -85.6078 267° West 366 421 23,200 720 Climbing Atlanta Center
12:58PM 33.7431 -85.7350 264° West 372 428 24,000 660 Climbing Atlanta Center
12:59PM 33.7328 -85.8547 266° West 378 435 24,600 660 Climbing Atlanta Center
01:00PM 33.7247 -85.9794 267° West 378 435 25,400 720 Climbing Atlanta Center
01:01PM 33.7183 -86.1067 266° West 388 447 26,100 660 Climbing Atlanta Center
01:02PM 33.7100 -86.2339 267° West 388 447 26,800 660 Climbing Atlanta Center
01:03PM 33.7033 -86.3736 264° West 388 447 27,500 600 Climbing Atlanta Center
01:04PM 33.6925 -86.5006 267° West 388 447 28,000 240 Climbing Atlanta Center
01:05PM 33.6878 -86.6278 265° West 388 447 28,000  Level Atlanta Center
01:06PM 33.6786 -86.7597 266° West 388 447 28,000  Level Atlanta Center
01:07PM 33.6714 -86.8919 261° West 393 452 28,000  Level Atlanta Center
01:08PM 33.6536 -87.0283 263° West 404 465 28,000  Level Atlanta Center
01:09PM 33.6403 -87.1503 262° West 410 472 28,000  Level Atlanta Center
01:11PM 33.6133 -87.3914 263° West 411 473 28,000  Level Memphis Center
01:12PM 33.5997 -87.5167 263° West 411 473 28,000  Level Memphis Center
01:13PM 33.5861 -87.6542 261° West 417 480 28,000  Level Memphis Center
01:14PM 33.5681 -87.7944 262° West 423 487 28,000  Level Memphis Center
01:15PM 33.5519 -87.9319 263° West 423 487 28,000  Level Memphis Center
01:16PM 33.5381 -88.0744 263° West 430 495 28,000  Level Memphis Center
01:17PM 33.5239 -88.2142 261° West 430 495 28,000  Level Memphis Center
01:18PM 33.5053 -88.3542 262° West 424 488 28,000  Level Memphis Center
01:19PM 33.4886 -88.4917 268° West 429 494 28,000  Level Memphis Center
01:20PM 33.4844 -88.6311 270° West 429 494 28,000  Level Memphis Center
01:21PM 33.4844 -88.7881 270° West 424 488 28,000  Level Memphis Center
01:22PM 33.4839 -88.9250 269° West 418 481 28,000  Level Memphis Center
01:23PM 33.4814 -89.0644 270° West 418 481 28,000  Level Memphis Center
01:24PM 33.4806 -89.2042 270° West 418 481 28,000  Level Memphis Center
01:25PM 33.4797 -89.3461 270° West 418 481 28,000  Level Memphis Center
01:26PM 33.4789 -89.4856 268° West 418 481 28,000  Level Memphis Center
01:27PM 33.4756 -89.6275 268° West 424 488 28,000  Level Memphis Center
01:28PM 33.4722 -89.7694 269° West 424 488 28,000  Level Memphis Center
01:29PM 33.4706 -89.9114 266° West 424 488 28,000  Level Memphis Center
01:30PM 33.4628 -90.0508 266° West 424 488 28,000  Level Memphis Center
01:31PM 33.4547 -90.1831 266° West 424 488 28,000  Level Memphis Center
01:32PM 33.4464 -90.3250 265° West 424 488 28,000  Level Memphis Center
01:33PM 33.4358 -90.4642 265° West 424 488 28,000  Level Memphis Center
01:34PM 33.4253 -90.6086 266° West 429 494 28,000  Level Memphis Center
01:35PM 33.4167 -90.7481 264° West 429 494 28,000  Level Memphis Center
01:36PM 33.4036 -90.8922 267° West 429 494 28,000  Level Memphis Center
01:37PM 33.3967 -91.0317 264° West 429 494 28,000  Level Memphis Center
01:38PM 33.3833 -91.1758 265° West 429 494 28,000  Level Memphis Center
01:39PM 33.3717 -91.3200 265° West 429 494 28,000  Level Memphis Center
01:40PM 33.3622 -91.4592 267° West 429 494 28,000 -600 Level Memphis Center
01:42PM 33.3458 -91.7792 264° West 437 503 26,100 -900 Descending Fort Worth Center
01:43PM 33.3317 -91.9292 263° West 448 516 25,100 -1,020 Descending Fort Worth Center
01:44PM 33.3169 -92.0767 264° West 448 516 24,100 -600 Descending Fort Worth Center
01:45PM 33.3031 -92.2417 265° West 448 516 24,000 -60 Descending Fort Worth Center
01:46PM 33.2933 -92.3639 263° West 443 510 24,000  Level Fort Worth Center
01:47PM 33.2800 -92.5014 265° West 430 495 24,000  Level Fort Worth Center
01:48PM 33.2706 -92.6333 257° West 417 480 24,000 -60 Level Fort Worth Center
01:49PM 33.2461 -92.7614 229° Southwest 412 474 23,900 -600 Descending Fort Worth Center
01:50PM 33.1706 -92.8647 227° Southwest 386 444 22,900 -1,020 Descending Fort Worth Center
01:51PM 33.0928 -92.9628 229° Southwest 402 463 21,900 -1,140 Descending Fort Worth Center
01:52PM 33.0411 -93.0347 230° Southwest 414 476 21,200 -1,200 Descending Fort Worth Center
01:52PM 32.9953 -93.0989 234° Southwest 411 473 20,600 -900 Descending Fort Worth Center
01:53PM 32.9497 -93.1728 246° West 414 476 19,900 -1,500 Descending Fort Worth Center
01:54PM 32.9056 -93.2889 244° Southwest 403 464 17,900 -2,220 Descending Fort Worth Center
01:55PM 32.8592 -93.3997 243° Southwest 382 440 15,500 -2,280 Descending Fort Worth Center
01:56PM 32.8164 -93.5006 243° Southwest 371 427 13,400 -2,100 Descending Fort Worth Center
01:57PM 32.7775 -93.5911 242° Southwest 340 391 11,300 -1,920 Descending Fort Worth Center
01:58PM 32.7383 -93.6792 239° Southwest 321 369 9,600 -1,920 Descending Fort Worth Center
01:59PM 32.6969 -93.7600 226° Southwest 299 344 7,500 -2,160 Descending Fort Worth Center
02:00PM 32.6383 -93.8314 224° Southwest 279 321 5,300 -1,380 Descending Fort Worth Center
02:01PM 32.5939 -93.8825 192° South 262 302 4,800 -840 Descending Fort Worth Center
02:02PM 32.5358 -93.8969 154° Southeast 212 244 3,700 -1,380 Descending Fort Worth Center
02:03PM 32.4997 -93.8764 139° Southeast 180 207 2,100 -1,500 Descending Fort Worth Center
02:04PM 32.4697 -93.8456 147° Southeast 149 171 700 -900 Descending Fort Worth Center
02:05PM 32.4356 -93.8197 147° Southeast 144 166 400 -300 Descending Fort Worth Center